Algoma, WV

5:35 PM EDT on August 21, 2014 (GMT -0400)
Tazewell County | Change Station
CLOSE
Current Station
Airport
Location: Richlands,
Elevation: 2651 ft
Nearby Weather Stations
Active Advisory: Special Statement

Elev 2651 ft 37.06 °N, 81.80 °W | Updated 20 minutes ago

Clear
Clear
78 °F
Feels Like 78 °F
N
4
Wind Variable Wind from South

Today
High -- | Low -- °F
--% Chance of Precip.
Yesterday
High -- | Low -- °F
Precip. -- in
6:46 AM 8:10 PM
Waning Crescent, 12% visible
Pressure 30.17 in
Visibility 10.0 miles
Clouds Clear
Dew Point 70 °F
Humidity 77%
Rainfall 0.01 in
Snow Depth Not available.
UV 4 out of 12
Pollen 9.30 out of 12
Air Quality Not available.
Flu Activity Not available.
METAR KJFZ 212115Z AUTO 19003KT 10SM CLR 26/21 A3017 RMK AO2 LTG DSNT N AND NW T02570213

More Conditions Fewer Conditions

Pressure 30.17 in
Visibility 10.0 miles
Clouds Clear
Dew Point 70 °F
Humidity 77%
Rainfall 0.01 in
Snow Depth Not available.
UV 4 out of 12
Pollen 9.30 out of 12
Air Quality Not available.
Flu Activity Not available.
METAR KJFZ 212115Z AUTO 19003KT 10SM CLR 26/21 A3017 RMK AO2 LTG DSNT N AND NW T02570213

More Conditions Fewer Conditions

10-Day Weather Forecast

Almanac

Astronomy

Aug. 21, 2014 Rise Set
Actual Time 6:46 AM EDT 8:10 PM EDT
Civil Twilight 6:19 AM EDT 8:37 PM EDT
Nautical Twilight 5:46 AM EDT 9:10 PM EDT
Astronomical Twilight 5:12 AM EDT 9:44 PM EDT
Moon 3:18 AM EDT 5:36 PM EDT
Length of Visible Light 14h 17m
Length of Day
13h 23m
Tomorrow will be 2m 12s shorter.
Waning Crescent, 12% of the Moon is Illuminated
Today
Waning Crescent
Aug 25
New
Sep 2
First Quarter
Sep 8
Full
Sep 15
Last Quarter

Today's Extremes

State Highs State Lows

Community

WunderPhotos

Upload Photos

1,746,021 photos uploaded!

WunderBlogs® & News

Nearby

Snow Depth

Station Depth Elevation
No new snow has been reported.

Earthquake Activity

City Distance Mag. Time & Date
No recent earthquake activity has been reported nearby.
Minimum magnitude displayed is 2.5.

Coastal Water Temperatures

Place Temperature
No Stations Reporting

Nearby Weather Stations